Time;durP1;ratioP1;P1;durP2;ratioP2;P2;SDS_P1;SDS_P2;PMS_P1;PMS_P2;Temp;Humidity;BMP_temperature;BMP_pressure;BME280_temperature;BME280_humidity;BME280_pressure;Samples;Min_cycle;Max_cycle;Signal;HPM_P1;HPM_P2
2021/04/22 00:02:02;;;;;;;45.47;6.45;;;6.30;99.90;;;;;;4978537;28;20039;-85
2021/04/22 00:04:28;;;;;;;40.05;7.57;;;6.30;99.90;;;;;;4993433;28;20031;-84
2021/04/22 00:06:54;;;;;;;46.15;6.63;;;6.30;99.90;;;;;;4993112;28;20030;-85
2021/04/22 00:09:20;;;;;;;33.20;5.90;;;6.30;99.90;;;;;;4993504;28;20076;-85
2021/04/22 00:11:46;;;;;;;46.45;7.20;;;6.30;99.90;;;;;;4989541;28;20033;-84
2021/04/22 00:14:12;;;;;;;35.55;6.68;;;6.30;99.90;;;;;;4973975;28;20031;-85
2021/04/22 00:16:38;;;;;;;40.47;6.57;;;6.30;99.90;;;;;;4974651;28;20035;-85
2021/04/22 00:19:04;;;;;;;39.30;7.55;;;6.30;99.90;;;;;;4982463;28;20097;-84
2021/04/22 00:21:30;;;;;;;41.55;5.38;;;6.30;99.90;;;;;;4993981;28;20022;-85
2021/04/22 00:23:55;;;;;;;49.65;6.43;;;6.30;99.90;;;;;;4983572;28;20031;-84
2021/04/22 00:26:21;;;;;;;43.00;6.25;;;6.30;99.90;;;;;;4989391;28;20125;-84
2021/04/22 00:28:47;;;;;;;41.45;6.45;;;6.30;99.90;;;;;;4975853;28;20398;-84
2021/04/22 00:31:12;;;;;;;40.47;6.80;;;6.20;99.90;;;;;;4993728;28;20022;-85
2021/04/22 00:33:38;;;;;;;42.85;6.03;;;6.10;99.90;;;;;;4992235;28;20483;-85
2021/04/22 00:36:04;;;;;;;38.33;6.75;;;6.20;99.90;;;;;;4993439;28;20037;-84
2021/04/22 00:38:30;;;;;;;58.28;7.38;;;6.20;99.90;;;;;;4993370;28;20038;-84
2021/04/22 00:40:56;;;;;;;49.22;6.38;;;6.20;99.90;;;;;;4992389;28;20038;-84
2021/04/22 00:43:22;;;;;;;38.63;5.75;;;6.20;99.90;;;;;;4993477;28;20038;-84
2021/04/22 00:45:49;;;;;;;49.25;6.93;;;6.20;99.90;;;;;;4991966;28;20030;-84
2021/04/22 00:48:17;;;;;;;33.42;5.55;;;6.20;99.90;;;;;;4990750;28;20073;-84
2021/04/22 00:50:44;;;;;;;41.92;6.55;;;6.20;99.90;;;;;;4972796;28;20467;-83
2021/04/22 00:53:10;;;;;;;40.28;7.43;;;6.20;99.90;;;;;;4975695;28;20557;-84
2021/04/22 00:55:37;;;;;;;46.25;6.85;;;6.20;99.90;;;;;;4991536;28;20034;-83
2021/04/22 00:58:03;;;;;;;48.65;7.00;;;6.30;99.90;;;;;;4992474;28;20401;-83
2021/04/22 01:00:32;;;;;;;34.40;6.35;;;6.20;99.90;;;;;;4991676;28;20026;-84
2021/04/22 01:02:59;;;;;;;51.67;8.35;;;6.30;99.90;;;;;;4991849;28;20030;-84
2021/04/22 01:05:29;;;;;;;42.70;7.40;;;6.30;99.90;;;;;;4992206;28;20101;-84
2021/04/22 01:07:55;;;;;;;45.80;8.15;;;6.30;99.90;;;;;;4992407;28;20022;-85
2021/04/22 01:10:21;;;;;;;41.17;7.68;;;6.30;99.90;;;;;;4992340;28;20022;-84
2021/04/22 01:12:47;;;;;;;44.83;6.28;;;6.30;99.90;;;;;;4992981;28;20080;-85
2021/04/22 01:15:16;;;;;;;39.45;6.80;;;6.30;99.90;;;;;;4991981;28;20450;-83
2021/04/22 01:17:42;;;;;;;47.80;5.68;;;6.30;99.90;;;;;;4992897;28;20494;-83
2021/04/22 01:20:14;;;;;;;44.05;6.68;;;6.30;99.90;;;;;;4992446;28;20242;-85
2021/04/22 01:22:40;;;;;;;36.75;5.85;;;6.30;99.90;;;;;;4991804;28;20030;-84
2021/04/22 01:25:07;;;;;;;41.42;5.20;;;6.30;99.90;;;;;;4987831;28;20043;-85
2021/04/22 01:27:33;;;;;;;45.72;6.10;;;6.20;99.90;;;;;;4971793;28;20018;-83
2021/04/22 01:29:59;;;;;;;24.48;5.32;;;6.20;99.90;;;;;;4985919;28;20105;-84
2021/04/22 01:32:25;;;;;;;34.88;4.30;;;6.20;99.90;;;;;;4990978;28;20507;-84
2021/04/22 01:34:50;;;;;;;61.05;7.40;;;6.20;99.90;;;;;;4987093;28;20411;-84
2021/04/22 01:37:16;;;;;;;38.15;6.03;;;6.20;99.90;;;;;;4973249;28;20109;-82
2021/04/22 01:39:42;;;;;;;42.08;5.47;;;6.20;99.90;;;;;;4988362;28;20031;-83
2021/04/22 01:42:07;;;;;;;36.58;5.22;;;6.20;99.90;;;;;;4971860;28;20031;-83
2021/04/22 01:44:33;;;;;;;41.40;5.40;;;6.20;99.90;;;;;;4971918;28;20101;-83
2021/04/22 01:46:58;;;;;;;39.05;5.40;;;6.20;99.90;;;;;;4971836;28;20023;-84
2021/04/22 01:49:24;;;;;;;37.05;5.85;;;6.20;99.90;;;;;;4998254;28;20031;-83
2021/04/22 01:51:49;;;;;;;47.53;6.25;;;6.20;99.90;;;;;;4992125;28;20037;-82
2021/04/22 01:54:15;;;;;;;46.67;5.63;;;6.20;99.90;;;;;;4986924;28;20487;-83
2021/04/22 01:56:40;;;;;;;42.67;4.82;;;6.20;99.90;;;;;;4987746;28;20031;-83
2021/04/22 01:59:06;;;;;;;55.47;6.88;;;6.20;99.90;;;;;;4978034;28;20643;-84
2021/04/22 02:01:31;;;;;;;36.20;5.50;;;6.20;99.90;;;;;;4991106;28;20053;-83
2021/04/22 02:03:57;;;;;;;38.45;6.10;;;6.10;99.90;;;;;;4990322;28;20037;-84
2021/04/22 02:06:22;;;;;;;33.25;6.38;;;6.10;99.90;;;;;;4990711;28;20443;-82
2021/04/22 02:08:48;;;;;;;45.00;5.70;;;6.10;99.90;;;;;;4991815;28;20040;-83
2021/04/22 02:11:13;;;;;;;51.85;6.47;;;6.10;99.90;;;;;;4994746;28;20027;-82
2021/04/22 02:13:39;;;;;;;49.13;6.50;;;5.90;99.90;;;;;;4971984;28;20027;-83
2021/04/22 02:16:05;;;;;;;37.35;5.50;;;5.90;99.90;;;;;;4971304;28;20061;-85
2021/04/22 02:18:30;;;;;;;52.30;5.32;;;5.90;99.90;;;;;;4974778;28;20030;-85
2021/04/22 02:20:56;;;;;;;42.03;5.25;;;5.90;99.90;;;;;;4991968;28;20034;-84
2021/04/22 02:23:23;;;;;;;47.10;6.72;;;5.90;99.90;;;;;;4987006;28;20038;-84
2021/04/22 02:25:49;;;;;;;42.03;5.90;;;5.90;99.90;;;;;;4970751;28;20038;-84
2021/04/22 02:28:16;;;;;;;35.10;6.05;;;5.90;99.90;;;;;;4972310;28;20101;-83
2021/04/22 02:30:43;;;;;;;32.80;5.47;;;5.90;99.90;;;;;;4988701;28;20026;-84
2021/04/22 02:33:11;;;;;;;38.83;6.95;;;5.90;99.90;;;;;;4991890;28;20122;-84
2021/04/22 02:35:39;;;;;;;68.00;7.28;;;6.00;99.90;;;;;;4989910;28;20034;-84
2021/04/22 02:38:07;;;;;;;58.45;6.53;;;6.00;99.90;;;;;;4991634;28;20038;-84
2021/04/22 02:40:34;;;;;;;44.03;6.90;;;6.00;99.90;;;;;;5006929;28;20026;-83
2021/04/22 02:43:01;;;;;;;45.05;5.40;;;6.00;99.90;;;;;;4991575;28;20057;-84
2021/04/22 02:45:30;;;;;;;43.10;5.65;;;6.00;99.90;;;;;;4989903;28;20026;-83
2021/04/22 02:47:56;;;;;;;52.03;5.70;;;6.00;99.90;;;;;;4991960;28;20036;-84
2021/04/22 02:50:25;;;;;;;51.00;6.60;;;6.00;99.90;;;;;;4990034;28;20031;-83
2021/04/22 02:52:50;;;;;;;43.53;6.95;;;6.00;99.90;;;;;;4989660;28;20044;-83
2021/04/22 02:55:16;;;;;;;64.38;8.43;;;6.00;99.90;;;;;;5006197;28;20113;-83
2021/04/22 02:57:42;;;;;;;42.03;6.75;;;5.90;99.90;;;;;;4991547;28;20029;-83
2021/04/22 03:00:12;;;;;;;65.00;7.78;;;5.90;99.90;;;;;;4989089;28;20510;-84
2021/04/22 03:02:38;;;;;;;37.08;6.05;;;5.90;99.90;;;;;;4991269;28;20399;-83
2021/04/22 03:05:05;;;;;;;59.97;9.05;;;5.90;99.90;;;;;;4990891;28;20030;-83
2021/04/22 03:07:30;;;;;;;52.10;7.18;;;5.90;99.90;;;;;;4991761;28;20105;-83
2021/04/22 03:09:56;;;;;;;60.08;6.85;;;5.90;99.90;;;;;;4993000;28;20110;-84
2021/04/22 03:12:21;;;;;;;62.28;7.15;;;5.80;99.90;;;;;;5010372;28;20030;-84
2021/04/22 03:14:47;;;;;;;49.20;7.00;;;5.70;99.90;;;;;;4994544;28;20023;-84
2021/04/22 03:17:13;;;;;;;44.47;6.15;;;5.70;99.90;;;;;;4993929;28;20036;-83
2021/04/22 03:19:38;;;;;;;46.53;6.32;;;5.60;99.90;;;;;;4994821;28;20101;-84
2021/04/22 03:22:04;;;;;;;62.95;6.53;;;5.60;99.90;;;;;;4993543;28;20113;-83
2021/04/22 03:24:29;;;;;;;52.40;6.75;;;5.50;99.90;;;;;;4980182;28;20030;-85
2021/04/22 03:26:55;;;;;;;35.92;5.28;;;5.40;99.90;;;;;;4975482;28;20031;-82
2021/04/22 03:29:20;;;;;;;39.72;6.63;;;5.30;99.90;;;;;;4981303;28;20077;-84
2021/04/22 03:31:46;;;;;;;39.78;5.97;;;5.30;99.90;;;;;;5010100;28;20050;-85
2021/04/22 03:34:12;;;;;;;43.80;7.57;;;5.30;99.90;;;;;;4992858;28;20023;-84
2021/04/22 03:36:37;;;;;;;40.53;6.38;;;5.40;99.90;;;;;;4994674;28;20030;-84
2021/04/22 03:39:04;;;;;;;47.47;5.40;;;5.40;99.90;;;;;;4994379;28;20109;-84
2021/04/22 03:41:30;;;;;;;42.92;6.72;;;5.40;99.90;;;;;;4994670;28;20117;-84
2021/04/22 03:43:56;;;;;;;57.95;7.65;;;5.40;99.90;;;;;;4992860;28;20117;-83
2021/04/22 03:46:22;;;;;;;52.83;7.70;;;5.40;99.90;;;;;;4994494;28;20104;-83
2021/04/22 03:48:48;;;;;;;36.92;7.68;;;5.40;99.90;;;;;;5006347;28;20027;-84
2021/04/22 03:51:13;;;;;;;50.38;8.77;;;5.50;99.90;;;;;;4993427;28;20475;-85
2021/04/22 03:53:39;;;;;;;45.75;6.90;;;5.50;99.90;;;;;;4993254;28;20030;-83
2021/04/22 03:56:05;;;;;;;39.42;6.05;;;5.50;99.90;;;;;;4994255;28;20166;-84
2021/04/22 03:58:30;;;;;;;42.35;6.80;;;5.60;99.90;;;;;;4994127;28;20030;-83
2021/04/22 04:00:56;;;;;;;46.72;5.97;;;5.60;99.90;;;;;;4975698;28;20041;-84
2021/04/22 04:03:22;;;;;;;43.15;7.50;;;5.60;99.90;;;;;;4988336;28;20061;-83
2021/04/22 04:05:47;;;;;;;48.80;7.32;;;5.60;99.90;;;;;;4992367;28;20479;-84
2021/04/22 04:08:13;;;;;;;52.47;10.23;;;5.60;99.90;;;;;;4993467;28;20394;-84
2021/04/22 04:10:39;;;;;;;53.38;6.93;;;5.70;99.90;;;;;;4989399;28;20041;-83
2021/04/22 04:13:05;;;;;;;52.45;6.93;;;5.60;99.90;;;;;;4989687;28;20027;-85
2021/04/22 04:15:31;;;;;;;50.88;7.38;;;5.60;99.90;;;;;;4989126;28;20033;-84
2021/04/22 04:17:56;;;;;;;83.82;8.88;;;5.60;99.90;;;;;;4989913;28;20066;-84
2021/04/22 04:20:22;;;;;;;54.22;8.38;;;5.50;99.90;;;;;;4989752;28;20046;-84
2021/04/22 04:22:48;;;;;;;41.45;7.20;;;5.50;99.90;;;;;;4993542;28;20105;-83
2021/04/22 04:25:14;;;;;;;55.42;8.25;;;5.50;99.90;;;;;;4973919;28;20023;-84
2021/04/22 04:27:40;;;;;;;58.67;8.75;;;5.40;99.90;;;;;;4976246;28;20057;-84
2021/04/22 04:30:09;;;;;;;42.92;6.60;;;5.30;99.90;;;;;;4993821;28;20113;-84
2021/04/22 04:32:34;;;;;;;54.58;7.55;;;5.30;99.90;;;;;;4993884;28;20606;-84
2021/04/22 04:35:00;;;;;;;46.42;6.75;;;5.30;99.90;;;;;;5008108;28;20129;-83
2021/04/22 04:37:25;;;;;;;47.05;6.75;;;5.30;99.90;;;;;;4992385;28;20038;-83
2021/04/22 04:39:51;;;;;;;54.53;8.75;;;5.40;99.90;;;;;;4991473;28;20077;-84
2021/04/22 04:42:18;;;;;;;47.17;8.02;;;5.40;99.90;;;;;;4992884;28;20038;-84
2021/04/22 04:44:44;;;;;;;56.17;7.65;;;5.40;99.90;;;;;;4992750;28;20053;-83
2021/04/22 04:47:09;;;;;;;47.72;6.88;;;5.50;99.90;;;;;;4992292;28;20483;-84
2021/04/22 04:49:35;;;;;;;46.85;7.40;;;5.50;99.90;;;;;;4992785;28;20027;-83
2021/04/22 04:52:00;;;;;;;53.78;8.45;;;5.60;99.90;;;;;;4992160;28;20386;-83
2021/04/22 04:54:26;;;;;;;52.90;6.40;;;5.60;99.90;;;;;;4990668;28;20177;-84
2021/04/22 04:56:52;;;;;;;61.08;7.20;;;5.60;99.90;;;;;;4993243;28;20034;-84
2021/04/22 04:59:17;;;;;;;56.38;9.98;;;5.60;99.90;;;;;;4991811;28;20032;-84
2021/04/22 05:01:43;;;;;;;59.63;8.10;;;5.50;99.90;;;;;;4993347;28;20033;-84
2021/04/22 05:04:08;;;;;;;70.32;7.68;;;5.50;99.90;;;;;;4992470;28;20403;-84
2021/04/22 05:06:34;;;;;;;40.25;6.10;;;5.50;99.90;;;;;;4991802;28;20447;-83
2021/04/22 05:08:59;;;;;;;58.35;6.70;;;5.60;99.90;;;;;;5007428;28;20040;-84
2021/04/22 05:11:25;;;;;;;49.70;7.53;;;5.60;99.90;;;;;;4992472;28;20423;-84
2021/04/22 05:13:51;;;;;;;43.63;7.13;;;5.70;99.90;;;;;;4991047;28;20487;-83
2021/04/22 05:16:18;;;;;;;52.38;8.07;;;5.80;99.90;;;;;;4992895;28;20048;-84
2021/04/22 05:18:43;;;;;;;49.05;6.03;;;5.80;99.90;;;;;;4992640;28;20026;-84
2021/04/22 05:21:09;;;;;;;35.42;6.53;;;5.90;99.90;;;;;;4992839;28;20034;-84
2021/04/22 05:23:34;;;;;;;52.55;7.90;;;6.00;99.90;;;;;;5001857;28;20089;-82
2021/04/22 05:26:00;;;;;;;46.38;7.20;;;6.00;99.90;;;;;;4971566;28;20041;-84
2021/04/22 05:28:25;;;;;;;61.78;7.07;;;6.10;99.90;;;;;;4972134;28;20523;-83
2021/04/22 05:30:51;;;;;;;44.13;7.78;;;6.10;99.90;;;;;;4991274;28;20399;-84
2021/04/22 05:33:17;;;;;;;63.70;9.43;;;6.10;99.90;;;;;;4990975;28;20080;-83
2021/04/22 05:35:43;;;;;;;36.10;7.13;;;6.10;99.90;;;;;;4985086;28;20395;-80
2021/04/22 05:38:09;;;;;;;47.53;8.35;;;6.10;99.90;;;;;;4987593;28;20027;-80
2021/04/22 05:40:35;;;;;;;46.63;7.30;;;6.20;99.90;;;;;;4987832;28;20023;-81
2021/04/22 05:43:01;;;;;;;45.28;5.97;;;6.30;99.90;;;;;;4986776;28;20038;-85
2021/04/22 05:45:27;;;;;;;53.92;7.60;;;6.30;99.90;;;;;;4987192;28;20046;-83
2021/04/22 05:47:53;;;;;;;59.13;7.43;;;6.40;99.90;;;;;;4986531;28;20026;-84
2021/04/22 05:50:20;;;;;;;45.17;7.50;;;6.40;99.90;;;;;;4986181;28;20030;-85
2021/04/22 05:52:46;;;;;;;48.97;7.85;;;6.40;99.90;;;;;;5002927;28;20025;-84
2021/04/22 05:55:13;;;;;;;47.17;7.60;;;6.50;99.90;;;;;;4984550;28;20495;-85
2021/04/22 05:57:39;;;;;;;42.70;6.10;;;6.60;99.90;;;;;;4982744;28;20395;-85
2021/04/22 06:00:08;;;;;;;45.78;8.30;;;6.60;99.90;;;;;;4983093;28;20038;-85
2021/04/22 06:02:34;;;;;;;52.25;8.18;;;6.60;99.90;;;;;;4983541;28;20028;-83
2021/04/22 06:04:59;;;;;;;59.72;10.52;;;6.60;99.90;;;;;;4985691;28;20477;-83
2021/04/22 06:07:25;;;;;;;47.10;7.32;;;6.60;99.90;;;;;;4986508;28;20092;-84
2021/04/22 06:09:50;;;;;;;48.65;9.07;;;6.70;99.90;;;;;;4986205;28;20057;-84
2021/04/22 06:12:16;;;;;;;55.00;8.32;;;6.70;99.90;;;;;;4981552;28;20038;-84
2021/04/22 06:14:41;;;;;;;37.10;7.95;;;6.70;99.90;;;;;;4986021;28;20126;-84
2021/04/22 06:17:07;;;;;;;41.05;7.28;;;6.80;99.90;;;;;;4986536;28;20058;-82
2021/04/22 06:19:33;;;;;;;39.55;7.57;;;6.80;99.90;;;;;;4986260;28;20019;-83
2021/04/22 06:21:58;;;;;;;39.33;7.00;;;6.80;99.90;;;;;;4988068;28;20442;-84
2021/04/22 06:24:24;;;;;;;35.50;7.30;;;6.90;99.90;;;;;;4985354;28;20122;-82
2021/04/22 06:26:51;;;;;;;44.92;7.43;;;6.80;99.90;;;;;;4987972;28;20024;-82
2021/04/22 06:29:17;;;;;;;33.80;6.97;;;6.80;99.90;;;;;;4985025;28;20022;-84
2021/04/22 06:31:45;;;;;;;57.08;9.10;;;6.80;99.90;;;;;;4986995;28;20085;-83
2021/04/22 06:34:14;;;;;;;51.47;7.80;;;6.80;99.90;;;;;;4986930;28;20030;-82
2021/04/22 06:36:40;;;;;;;54.38;8.32;;;6.90;99.90;;;;;;5006991;28;20384;-83
2021/04/22 06:39:07;;;;;;;49.67;7.45;;;6.90;99.90;;;;;;4991384;28;20034;-83
2021/04/22 06:41:33;;;;;;;42.72;8.63;;;7.00;99.90;;;;;;5006981;28;20431;-85
2021/04/22 06:43:58;;;;;;;39.13;7.70;;;6.90;99.90;;;;;;4992213;28;20096;-86
2021/04/22 06:46:24;;;;;;;62.75;8.73;;;6.80;99.90;;;;;;5010838;28;20026;-85
2021/04/22 06:48:51;;;;;;;49.40;8.95;;;7.00;99.90;;;;;;4990952;28;20026;-86
2021/04/22 06:51:17;;;;;;;67.68;8.38;;;7.00;99.90;;;;;;4975127;28;20019;-83
2021/04/22 06:53:42;;;;;;;48.22;7.60;;;7.00;99.90;;;;;;4981684;28;20037;-84
2021/04/22 06:56:08;;;;;;;46.10;9.02;;;7.10;99.90;;;;;;4995506;28;20035;-83
2021/04/22 06:58:33;;;;;;;36.00;6.63;;;7.20;99.90;;;;;;4995207;28;20033;-83
2021/04/22 07:00:59;;;;;;;46.00;7.38;;;7.10;99.90;;;;;;4993943;28;20026;-83
2021/04/22 07:03:24;;;;;;;37.00;7.47;;;7.10;99.90;;;;;;4995334;28;20030;-83
2021/04/22 07:05:50;;;;;;;47.92;7.15;;;7.30;99.90;;;;;;5009689;28;20037;-84
2021/04/22 07:08:15;;;;;;;41.70;7.35;;;7.60;99.90;;;;;;4992192;28;20067;-84
2021/04/22 07:10:43;;;;;;;37.90;7.50;;;7.70;99.90;;;;;;4981206;28;20030;-83
2021/04/22 07:13:09;;;;;;;26.73;6.13;;;7.80;99.90;;;;;;4995110;28;20054;-82
2021/04/22 07:15:35;;;;;;;45.60;6.70;;;7.80;99.90;;;;;;4994356;28;20030;-85
2021/04/22 07:18:01;;;;;;;41.63;7.82;;;7.70;99.90;;;;;;4993988;28;20045;-83
2021/04/22 07:20:27;;;;;;;42.63;7.07;;;7.60;99.90;;;;;;5009739;28;20057;-84
2021/04/22 07:22:55;;;;;;;32.63;6.55;;;7.60;99.90;;;;;;4994724;28;20081;-84
2021/04/22 07:25:22;;;;;;;42.03;6.25;;;7.70;99.90;;;;;;4974789;28;20018;-85
2021/04/22 07:27:48;;;;;;;25.50;6.93;;;7.70;99.90;;;;;;4990355;28;20023;-84
2021/04/22 07:30:15;;;;;;;33.03;6.03;;;7.60;99.90;;;;;;4984114;28;20097;-84
2021/04/22 07:32:41;;;;;;;24.80;5.15;;;7.80;99.90;;;;;;4990321;28;20030;-84
2021/04/22 07:35:12;;;;;;;33.70;7.50;;;7.90;99.90;;;;;;4974699;28;20022;-83
2021/04/22 07:37:38;;;;;;;24.45;6.65;;;7.90;99.90;;;;;;4987613;28;20029;-82
2021/04/22 07:40:06;;;;;;;36.55;5.55;;;8.00;99.90;;;;;;5005766;28;20565;-83
2021/04/22 07:42:31;;;;;;;25.95;7.53;;;8.20;99.90;;;;;;4989534;28;20121;-83
2021/04/22 07:44:57;;;;;;;31.52;6.03;;;8.60;99.90;;;;;;4988406;28;20133;-85
2021/04/22 07:47:22;;;;;;;23.30;5.78;;;8.80;99.90;;;;;;4987770;28;20026;-83
2021/04/22 07:49:48;;;;;;;20.42;5.97;;;8.60;99.90;;;;;;4988717;28;20037;-82
2021/04/22 07:52:16;;;;;;;39.92;7.85;;;8.60;99.90;;;;;;4988643;28;20042;-83
2021/04/22 07:54:42;;;;;;;37.80;6.68;;;8.80;99.90;;;;;;4977091;28;20031;-84
2021/04/22 07:57:09;;;;;;;56.17;6.28;;;9.20;99.90;;;;;;4976443;28;20026;-88
2021/04/22 07:59:35;;;;;;;29.33;6.93;;;9.20;99.90;;;;;;4994073;28;20437;-85
2021/04/22 08:02:00;;;;;;;48.03;7.90;;;8.90;99.90;;;;;;4975084;28;20027;-85
2021/04/22 08:04:26;;;;;;;30.90;6.40;;;8.80;99.90;;;;;;4974296;28;20023;-85
2021/04/22 08:06:51;;;;;;;36.97;6.68;;;8.60;99.90;;;;;;4974765;28;20396;-84
2021/04/22 08:09:17;;;;;;;33.97;7.90;;;8.50;99.90;;;;;;4973621;28;20023;-83
2021/04/22 08:11:43;;;;;;;52.85;8.95;;;8.60;99.90;;;;;;4989471;28;20030;-84
2021/04/22 08:14:08;;;;;;;42.15;7.13;;;8.50;99.90;;;;;;4989392;28;20027;-85
2021/04/22 08:16:34;;;;;;;23.52;5.70;;;8.40;99.90;;;;;;4986162;28;20030;-85
2021/04/22 08:19:00;;;;;;;44.10;6.03;;;8.40;99.90;;;;;;4992789;28;20113;-86
2021/04/22 08:21:25;;;;;;;41.35;5.57;;;8.40;99.90;;;;;;4993259;28;20105;-83
2021/04/22 08:23:51;;;;;;;27.92;6.85;;;8.30;99.90;;;;;;4993420;28;20081;-85
2021/04/22 08:26:19;;;;;;;43.95;6.22;;;8.40;99.90;;;;;;4993861;28;20022;-84
2021/04/22 08:28:46;;;;;;;37.40;5.93;;;8.60;99.90;;;;;;4993842;28;20387;-84
2021/04/22 08:31:21;;;;;;;29.05;5.50;;;8.60;99.90;;;;;;4990842;28;20030;-84
2021/04/22 08:33:47;;;;;;;32.60;6.63;;;8.40;99.90;;;;;;4991746;28;20076;-84
2021/04/22 08:36:13;;;;;;;37.30;5.32;;;8.40;99.90;;;;;;4984224;28;20030;-84
2021/04/22 08:38:39;;;;;;;26.52;4.72;;;8.50;99.90;;;;;;4993784;28;20065;-85
2021/04/22 08:41:05;;;;;;;27.33;5.20;;;8.50;99.90;;;;;;4993242;28;20030;-84
2021/04/22 08:43:32;;;;;;;31.50;5.43;;;8.40;99.90;;;;;;4993761;28;20060;-85
2021/04/22 08:45:57;;;;;;;21.95;5.57;;;8.40;99.90;;;;;;4992939;28;20514;-84
2021/04/22 08:48:23;;;;;;;25.25;5.20;;;8.50;99.90;;;;;;5008524;28;20022;-85
2021/04/22 08:50:50;;;;;;;26.70;5.88;;;8.60;99.90;;;;;;4988805;28;20023;-86
2021/04/22 08:53:20;;;;;;;46.05;6.55;;;8.80;99.90;;;;;;4988902;28;20136;-84
2021/04/22 08:55:46;;;;;;;23.55;5.28;;;8.90;99.90;;;;;;4973326;28;20415;-84
2021/04/22 08:58:13;;;;;;;27.67;5.95;;;8.70;99.90;;;;;;4974047;28;20030;-84
2021/04/22 09:00:50;;;;;;;28.73;5.68;;;8.80;99.90;;;;;;4973776;28;20026;-85
2021/04/22 09:03:16;;;;;;;28.35;5.47;;;9.20;99.90;;;;;;4988774;28;20034;-85
2021/04/22 09:05:42;;;;;;;27.55;4.50;;;9.40;99.90;;;;;;4971694;28;20411;-86
2021/04/22 09:08:09;;;;;;;17.23;4.53;;;9.50;99.90;;;;;;4973187;28;20022;-86
2021/04/22 09:10:35;;;;;;;28.27;5.72;;;9.70;99.90;;;;;;4973799;28;20023;-86
2021/04/22 09:13:10;;;;;;;31.13;4.55;;;9.50;99.90;;;;;;4988368;28;20032;-85
2021/04/22 09:15:37;;;;;;;23.05;4.95;;;9.40;99.90;;;;;;4971672;28;20081;-83
2021/04/22 09:18:15;;;;;;;40.15;5.82;;;9.60;99.90;;;;;;4972448;28;20054;-83
2021/04/22 09:20:53;;;;;;;20.90;5.88;;;9.20;99.90;;;;;;4991039;28;20045;-85
2021/04/22 09:23:29;;;;;;;44.05;7.20;;;9.00;99.90;;;;;;4991544;28;20446;-85
2021/04/22 09:26:06;;;;;;;30.90;6.40;;;8.90;99.90;;;;;;5007200;28;20026;-85
2021/04/22 09:28:44;;;;;;;44.95;6.00;;;9.00;99.90;;;;;;4991617;28;20034;-85
2021/04/22 09:31:23;;;;;;;29.33;6.10;;;8.80;99.90;;;;;;5004262;28;20019;-84
2021/04/22 09:34:04;;;;;;;42.85;6.68;;;8.80;99.90;;;;;;4971454;28;20023;-84
2021/04/22 09:36:48;;;;;;;39.80;7.60;;;8.90;99.90;;;;;;4982297;28;20022;-85
2021/04/22 09:39:17;;;;;;;26.45;6.78;;;8.80;99.90;;;;;;4992561;28;20089;-84
2021/04/22 09:41:43;;;;;;;33.25;7.00;;;8.60;99.90;;;;;;4991824;28;20065;-83
2021/04/22 09:44:14;;;;;;;33.60;5.80;;;8.50;99.90;;;;;;4990439;28;20073;-84
2021/04/22 09:46:42;;;;;;;36.00;6.68;;;8.40;99.90;;;;;;4991072;28;20026;-83
2021/04/22 09:49:14;;;;;;;41.35;8.00;;;8.40;99.90;;;;;;5007461;28;20026;-83
2021/04/22 09:51:40;;;;;;;35.70;7.55;;;8.60;99.90;;;;;;5006102;28;20030;-84
2021/04/22 09:54:13;;;;;;;28.60;6.20;;;8.70;99.90;;;;;;4986185;28;20501;-84
2021/04/22 09:56:51;;;;;;;26.50;6.05;;;9.00;99.90;;;;;;4971745;28;20380;-83
2021/04/22 09:59:19;;;;;;;40.47;7.03;;;9.20;99.90;;;;;;4980591;28;20062;-84
2021/04/22 10:01:47;;;;;;;29.25;7.35;;;9.30;99.90;;;;;;5004385;28;20446;-84
2021/04/22 10:04:15;;;;;;;39.17;5.82;;;9.20;99.90;;;;;;4991475;28;20109;-83
2021/04/22 10:06:43;;;;;;;29.05;5.90;;;9.00;99.90;;;;;;4991566;28;20140;-84
2021/04/22 10:09:10;;;;;;;22.08;6.00;;;9.10;99.90;;;;;;4992489;28;20548;-84
2021/04/22 10:11:45;;;;;;;40.55;8.35;;;9.20;99.90;;;;;;4992148;28;20109;-85
2021/04/22 10:14:10;;;;;;;33.40;6.70;;;9.20;99.90;;;;;;4990422;28;20030;-84
2021/04/22 10:16:36;;;;;;;44.13;8.63;;;9.10;99.90;;;;;;4984137;28;20535;-85
2021/04/22 10:19:02;;;;;;;28.75;7.78;;;8.80;99.90;;;;;;4986324;28;20085;-84
2021/04/22 10:21:28;;;;;;;33.42;7.07;;;8.70;99.90;;;;;;4994820;28;20088;-85
2021/04/22 10:24:06;;;;;;;46.97;7.13;;;8.70;99.90;;;;;;5010848;28;20161;-85
2021/04/22 10:26:32;;;;;;;27.98;5.75;;;9.00;99.90;;;;;;5010985;28;20400;-85
2021/04/22 10:28:57;;;;;;;35.83;7.60;;;8.90;99.90;;;;;;4991417;28;20039;-85
2021/04/22 10:31:25;;;;;;;27.98;5.85;;;8.80;99.90;;;;;;4991645;28;20030;-83
2021/04/22 10:33:53;;;;;;;44.78;7.65;;;8.80;99.90;;;;;;4976110;28;20037;-84
2021/04/22 10:36:20;;;;;;;33.17;7.15;;;8.90;99.90;;;;;;4976868;28;20368;-86
2021/04/22 10:38:50;;;;;;;29.08;7.18;;;9.10;99.90;;;;;;4976512;28;20098;-85
2021/04/22 10:41:17;;;;;;;41.72;7.50;;;9.00;99.90;;;;;;4976579;28;20030;-85
2021/04/22 10:43:43;;;;;;;24.15;6.97;;;8.90;99.90;;;;;;4976085;28;20045;-83
2021/04/22 10:46:09;;;;;;;45.03;7.93;;;8.80;99.90;;;;;;4978386;28;20022;-84
2021/04/22 10:48:34;;;;;;;33.95;7.20;;;8.70;99.90;;;;;;4994469;28;20439;-85
2021/04/22 10:51:00;;;;;;;47.00;7.25;;;8.70;99.90;;;;;;5005740;28;20027;-86
2021/04/22 10:53:27;;;;;;;30.25;6.30;;;8.80;99.90;;;;;;4984373;28;20026;-85
2021/04/22 10:55:55;;;;;;;27.17;6.97;;;9.00;99.90;;;;;;4993888;28;20034;-85
2021/04/22 10:58:22;;;;;;;39.75;6.50;;;9.00;99.90;;;;;;4994466;28;20026;-87
2021/04/22 11:01:00;;;;;;;40.17;6.53;;;9.00;99.90;;;;;;4994391;28;20553;-86
2021/04/22 11:03:26;;;;;;;33.33;7.70;;;9.00;99.90;;;;;;4993893;28;20030;-85
2021/04/22 11:05:55;;;;;;;35.03;7.95;;;8.90;99.90;;;;;;4990260;28;20520;-87
2021/04/22 11:08:34;;;;;;;37.03;7.32;;;8.90;99.90;;;;;;4974894;28;20027;-85
2021/04/22 11:11:00;;;;;;;25.42;6.13;;;8.60;99.90;;;;;;4979886;28;20084;-85
2021/04/22 11:13:31;;;;;;;41.53;8.45;;;8.60;99.90;;;;;;4994068;28;20026;-86
2021/04/22 11:15:56;;;;;;;36.75;7.45;;;8.70;99.90;;;;;;4994574;28;20033;-86
2021/04/22 11:18:34;;;;;;;30.35;8.05;;;8.90;99.90;;;;;;4994004;28;20386;-85
2021/04/22 11:21:00;;;;;;;36.03;8.15;;;9.10;99.90;;;;;;4994518;28;20057;-85
2021/04/22 11:23:25;;;;;;;26.83;6.78;;;9.20;99.90;;;;;;4990364;28;20079;-84
2021/04/22 11:25:53;;;;;;;32.92;8.95;;;9.20;99.90;;;;;;4975125;28;20077;-83
2021/04/22 11:28:29;;;;;;;37.05;8.30;;;9.10;99.90;;;;;;4974400;28;20113;-84
2021/04/22 11:31:07;;;;;;;30.20;8.45;;;9.00;99.90;;;;;;4976131;28;20019;-83
2021/04/22 11:33:33;;;;;;;34.45;8.13;;;9.30;99.90;;;;;;4993626;28;20088;-82
2021/04/22 11:36:20;;;;;;;29.70;6.45;;;9.40;99.90;;;;;;4989394;28;20046;-85
2021/04/22 11:39:01;;;;;;;28.80;7.95;;;9.40;99.90;;;;;;4975531;28;20110;-85
2021/04/22 11:41:30;;;;;;;32.42;6.38;;;9.60;99.90;;;;;;4974412;28;20026;-83
2021/04/22 11:44:01;;;;;;;45.72;7.88;;;9.40;99.90;;;;;;4973390;28;20054;-85
2021/04/22 11:46:44;;;;;;;43.25;8.10;;;9.70;99.90;;;;;;4990027;28;20394;-86
2021/04/22 11:49:31;;;;;;;51.17;8.40;;;9.50;99.90;;;;;;4993620;28;20026;-84
2021/04/22 11:51:59;;;;;;;42.08;9.00;;;9.20;99.90;;;;;;4994867;28;20030;-86
2021/04/22 11:54:30;;;;;;;37.72;9.38;;;8.80;99.90;;;;;;4994286;28;20077;-85
2021/04/22 11:57:06;;;;;;;37.25;9.65;;;8.60;99.90;;;;;;4994860;28;20045;-84
2021/04/22 11:59:32;;;;;;;30.75;7.50;;;8.50;99.90;;;;;;4994760;28;20077;-84
2021/04/22 12:02:04;;;;;;;34.95;7.80;;;8.50;99.90;;;;;;4993336;28;20113;-85
2021/04/22 12:04:35;;;;;;;31.52;7.22;;;8.40;99.90;;;;;;4992498;28;20031;-83
2021/04/22 12:07:01;;;;;;;50.33;8.88;;;8.40;99.90;;;;;;4992868;28;20022;-84
2021/04/22 12:09:28;;;;;;;34.17;7.93;;;8.60;99.90;;;;;;4993208;28;20022;-85
2021/04/22 12:11:53;;;;;;;39.92;9.48;;;8.70;99.90;;;;;;5009425;28;20108;-84
2021/04/22 12:14:29;;;;;;;34.60;7.88;;;9.10;99.90;;;;;;4992262;28;20049;-85
2021/04/22 12:16:55;;;;;;;45.22;9.45;;;9.10;99.90;;;;;;4992812;28;20598;-86
2021/04/22 12:19:26;;;;;;;26.95;7.00;;;8.90;99.90;;;;;;4994145;28;20058;-85
2021/04/22 12:21:55;;;;;;;48.55;8.93;;;9.20;99.90;;;;;;4994068;28;20037;-84
2021/04/22 12:24:24;;;;;;;38.80;8.50;;;9.90;99.90;;;;;;4993436;28;20030;-86
2021/04/22 12:26:50;;;;;;;32.45;7.28;;;9.60;99.90;;;;;;4992819;28;20402;-85
2021/04/22 12:29:17;;;;;;;38.85;8.00;;;9.80;99.90;;;;;;4993724;28;20037;-84
2021/04/22 12:31:46;;;;;;;35.83;9.20;;;10.00;99.90;;;;;;4994138;28;20019;-85
2021/04/22 12:34:12;;;;;;;36.50;8.27;;;10.20;99.90;;;;;;4992021;28;20502;-85
2021/04/22 12:36:57;;;;;;;37.35;9.20;;;10.30;99.90;;;;;;4992705;28;20058;-85
2021/04/22 12:39:33;;;;;;;41.35;8.27;;;9.80;99.90;;;;;;4992348;28;20054;-85
2021/04/22 12:42:23;;;;;;;25.70;7.47;;;10.00;99.90;;;;;;4987995;28;20065;-86
2021/04/22 12:45:05;;;;;;;37.53;9.10;;;9.70;99.90;;;;;;4971216;28;20126;-84
2021/04/22 12:47:53;;;;;;;34.30;8.80;;;9.80;99.90;;;;;;4974286;28;20059;-83